sensor_id;sensor_type;location;lat;lon;timestamp;temperature;humidity
18809;DHT22;9532;54.322;10.116;2022-10-17T00:01:47;18.90;72.30
18809;DHT22;9532;54.322;10.116;2022-10-17T00:04:14;18.90;72.30
18809;DHT22;9532;54.322;10.116;2022-10-17T00:06:42;18.90;72.30
18809;DHT22;9532;54.322;10.116;2022-10-17T00:09:09;18.90;72.30
18809;DHT22;9532;54.322;10.116;2022-10-17T00:11:36;18.90;72.30
18809;DHT22;9532;54.322;10.116;2022-10-17T00:14:03;18.90;72.30
18809;DHT22;9532;54.322;10.116;2022-10-17T00:16:33;18.90;72.30
18809;DHT22;9532;54.322;10.116;2022-10-17T00:19:01;18.90;72.30
18809;DHT22;9532;54.322;10.116;2022-10-17T00:21:29;18.90;72.30
18809;DHT22;9532;54.322;10.116;2022-10-17T00:23:59;18.90;72.30
18809;DHT22;9532;54.322;10.116;2022-10-17T00:26:27;18.90;72.30
18809;DHT22;9532;54.322;10.116;2022-10-17T00:28:54;18.90;72.30
18809;DHT22;9532;54.322;10.116;2022-10-17T00:31:22;18.90;72.30
18809;DHT22;9532;54.322;10.116;2022-10-17T00:33:51;18.90;72.30
18809;DHT22;9532;54.322;10.116;2022-10-17T00:36:20;18.90;72.30
18809;DHT22;9532;54.322;10.116;2022-10-17T00:38:51;18.90;72.30
18809;DHT22;9532;54.322;10.116;2022-10-17T00:41:24;18.90;72.30
18809;DHT22;9532;54.322;10.116;2022-10-17T00:43:55;18.80;72.30
18809;DHT22;9532;54.322;10.116;2022-10-17T00:46:24;18.90;72.30
18809;DHT22;9532;54.322;10.116;2022-10-17T00:48:53;18.90;72.30
18809;DHT22;9532;54.322;10.116;2022-10-17T00:51:27;18.90;72.30
18809;DHT22;9532;54.322;10.116;2022-10-17T00:53:58;18.80;72.20
18809;DHT22;9532;54.322;10.116;2022-10-17T00:56:28;18.90;72.20
18809;DHT22;9532;54.322;10.116;2022-10-17T00:58:56;18.90;72.30
18809;DHT22;9532;54.322;10.116;2022-10-17T01:01:24;18.80;72.20
18809;DHT22;9532;54.322;10.116;2022-10-17T01:03:52;18.90;72.30
18809;DHT22;9532;54.322;10.116;2022-10-17T01:06:18;18.90;72.30
18809;DHT22;9532;54.322;10.116;2022-10-17T01:08:45;18.90;72.30
18809;DHT22;9532;54.322;10.116;2022-10-17T01:11:21;18.90;72.30
18809;DHT22;9532;54.322;10.116;2022-10-17T01:13:57;18.90;72.30
18809;DHT22;9532;54.322;10.116;2022-10-17T01:16:34;18.80;72.10
18809;DHT22;9532;54.322;10.116;2022-10-17T01:19:21;18.80;72.20
18809;DHT22;9532;54.322;10.116;2022-10-17T01:21:56;18.80;72.10
18809;DHT22;9532;54.322;10.116;2022-10-17T01:31:08;18.80;72.20
18809;DHT22;9532;54.322;10.116;2022-10-17T01:33:46;18.80;72.30
18809;DHT22;9532;54.322;10.116;2022-10-17T01:36:23;18.80;72.20
18809;DHT22;9532;54.322;10.116;2022-10-17T01:38:56;18.90;72.20
18809;DHT22;9532;54.322;10.116;2022-10-17T01:41:30;18.90;72.30
18809;DHT22;9532;54.322;10.116;2022-10-17T01:44:06;18.80;72.10
18809;DHT22;9532;54.322;10.116;2022-10-17T01:46:38;18.80;72.30
18809;DHT22;9532;54.322;10.116;2022-10-17T01:49:08;18.80;72.20
18809;DHT22;9532;54.322;10.116;2022-10-17T01:51:38;18.80;72.20
18809;DHT22;9532;54.322;10.116;2022-10-17T01:54:10;18.80;72.20
18809;DHT22;9532;54.322;10.116;2022-10-17T01:56:40;18.80;72.20
18809;DHT22;9532;54.322;10.116;2022-10-17T01:59:11;18.80;72.20
18809;DHT22;9532;54.322;10.116;2022-10-17T02:01:41;18.80;72.20
18809;DHT22;9532;54.322;10.116;2022-10-17T02:04:10;18.80;72.20
18809;DHT22;9532;54.322;10.116;2022-10-17T02:06:38;18.80;72.20
18809;DHT22;9532;54.322;10.116;2022-10-17T02:09:17;18.80;72.20
18809;DHT22;9532;54.322;10.116;2022-10-17T02:11:51;18.90;72.30
18809;DHT22;9532;54.322;10.116;2022-10-17T02:14:26;18.80;72.20
18809;DHT22;9532;54.322;10.116;2022-10-17T02:17:03;18.80;72.30
18809;DHT22;9532;54.322;10.116;2022-10-17T02:19:40;18.80;72.30
18809;DHT22;9532;54.322;10.116;2022-10-17T02:22:18;18.80;72.30
18809;DHT22;9532;54.322;10.116;2022-10-17T02:24:53;18.80;72.30
18809;DHT22;9532;54.322;10.116;2022-10-17T02:27:32;18.80;72.30
18809;DHT22;9532;54.322;10.116;2022-10-17T02:30:05;18.80;72.20
18809;DHT22;9532;54.322;10.116;2022-10-17T02:32:41;18.80;72.20
18809;DHT22;9532;54.322;10.116;2022-10-17T02:35:13;18.80;72.10
18809;DHT22;9532;54.322;10.116;2022-10-17T02:37:42;18.80;72.20
18809;DHT22;9532;54.322;10.116;2022-10-17T02:40:12;18.80;72.20
18809;DHT22;9532;54.322;10.116;2022-10-17T02:42:43;18.80;72.20
18809;DHT22;9532;54.322;10.116;2022-10-17T02:45:12;18.80;72.20
18809;DHT22;9532;54.322;10.116;2022-10-17T02:47:47;18.80;72.20
18809;DHT22;9532;54.322;10.116;2022-10-17T02:50:16;18.80;72.10
18809;DHT22;9532;54.322;10.116;2022-10-17T02:52:47;18.80;72.20
18809;DHT22;9532;54.322;10.116;2022-10-17T02:55:18;18.80;72.30
18809;DHT22;9532;54.322;10.116;2022-10-17T02:57:48;18.80;72.20
18809;DHT22;9532;54.322;10.116;2022-10-17T03:00:18;18.80;72.20
18809;DHT22;9532;54.322;10.116;2022-10-17T03:02:48;18.80;72.20
18809;DHT22;9532;54.322;10.116;2022-10-17T03:05:17;18.80;72.30
18809;DHT22;9532;54.322;10.116;2022-10-17T03:07:45;18.80;72.30
18809;DHT22;9532;54.322;10.116;2022-10-17T03:10:12;18.80;72.30
18809;DHT22;9532;54.322;10.116;2022-10-17T03:12:39;18.80;72.30
18809;DHT22;9532;54.322;10.116;2022-10-17T03:15:07;18.80;72.30
18809;DHT22;9532;54.322;10.116;2022-10-17T03:17:35;18.80;73.10
18809;DHT22;9532;54.322;10.116;2022-10-17T03:20:04;18.80;72.30
18809;DHT22;9532;54.322;10.116;2022-10-17T03:22:32;18.80;72.30
18809;DHT22;9532;54.322;10.116;2022-10-17T03:24:59;18.80;72.30
18809;DHT22;9532;54.322;10.116;2022-10-17T03:27:26;18.80;72.30
18809;DHT22;9532;54.322;10.116;2022-10-17T03:29:53;18.80;72.30
18809;DHT22;9532;54.322;10.116;2022-10-17T03:32:20;18.80;72.30
18809;DHT22;9532;54.322;10.116;2022-10-17T03:34:47;18.80;72.30
18809;DHT22;9532;54.322;10.116;2022-10-17T03:37:15;18.80;72.30
18809;DHT22;9532;54.322;10.116;2022-10-17T03:39:42;18.80;72.30
18809;DHT22;9532;54.322;10.116;2022-10-17T03:42:09;18.80;72.30
18809;DHT22;9532;54.322;10.116;2022-10-17T03:44:36;18.80;72.30
18809;DHT22;9532;54.322;10.116;2022-10-17T03:47:03;18.80;72.30
18809;DHT22;9532;54.322;10.116;2022-10-17T03:49:30;18.80;72.30
18809;DHT22;9532;54.322;10.116;2022-10-17T03:51:57;18.80;72.30
18809;DHT22;9532;54.322;10.116;2022-10-17T03:54:25;18.80;72.30
18809;DHT22;9532;54.322;10.116;2022-10-17T03:56:52;18.80;72.30
18809;DHT22;9532;54.322;10.116;2022-10-17T03:59:19;18.80;72.30
18809;DHT22;9532;54.322;10.116;2022-10-17T04:01:46;18.80;72.30
18809;DHT22;9532;54.322;10.116;2022-10-17T04:04:13;18.80;72.30
18809;DHT22;9532;54.322;10.116;2022-10-17T04:06:40;18.80;72.30
18809;DHT22;9532;54.322;10.116;2022-10-17T04:09:08;18.80;72.30
18809;DHT22;9532;54.322;10.116;2022-10-17T04:11:37;18.80;72.30
18809;DHT22;9532;54.322;10.116;2022-10-17T04:14:04;18.80;72.30
18809;DHT22;9532;54.322;10.116;2022-10-17T04:16:31;18.80;72.30
18809;DHT22;9532;54.322;10.116;2022-10-17T04:18:59;18.80;72.30
18809;DHT22;9532;54.322;10.116;2022-10-17T04:21:27;18.80;72.30
18809;DHT22;9532;54.322;10.116;2022-10-17T04:23:55;18.80;72.30
18809;DHT22;9532;54.322;10.116;2022-10-17T04:26:23;18.80;72.30
18809;DHT22;9532;54.322;10.116;2022-10-17T04:28:52;18.80;72.30
18809;DHT22;9532;54.322;10.116;2022-10-17T04:31:19;18.80;72.30
18809;DHT22;9532;54.322;10.116;2022-10-17T04:33:46;18.80;72.30
18809;DHT22;9532;54.322;10.116;2022-10-17T04:36:15;18.80;72.30
18809;DHT22;9532;54.322;10.116;2022-10-17T04:38:43;18.70;72.30
18809;DHT22;9532;54.322;10.116;2022-10-17T04:41:13;18.70;72.20
18809;DHT22;9532;54.322;10.116;2022-10-17T04:43:40;18.70;72.30
18809;DHT22;9532;54.322;10.116;2022-10-17T04:46:10;18.80;72.30
18809;DHT22;9532;54.322;10.116;2022-10-17T04:48:39;18.80;72.30
18809;DHT22;9532;54.322;10.116;2022-10-17T04:51:09;18.80;72.30
18809;DHT22;9532;54.322;10.116;2022-10-17T04:53:37;18.80;72.30
18809;DHT22;9532;54.322;10.116;2022-10-17T04:56:09;18.70;72.30
18809;DHT22;9532;54.322;10.116;2022-10-17T04:58:36;18.70;72.20
18809;DHT22;9532;54.322;10.116;2022-10-17T05:01:05;18.80;72.30
18809;DHT22;9532;54.322;10.116;2022-10-17T05:03:34;18.70;72.20
18809;DHT22;9532;54.322;10.116;2022-10-17T05:06:06;18.80;72.30
18809;DHT22;9532;54.322;10.116;2022-10-17T05:08:33;18.80;72.30
18809;DHT22;9532;54.322;10.116;2022-10-17T05:11:01;18.70;72.20
18809;DHT22;9532;54.322;10.116;2022-10-17T05:13:29;18.70;72.30
18809;DHT22;9532;54.322;10.116;2022-10-17T05:16:01;18.80;72.30
18809;DHT22;9532;54.322;10.116;2022-10-17T05:18:28;18.80;73.10
18809;DHT22;9532;54.322;10.116;2022-10-17T05:20:56;18.80;72.30
18809;DHT22;9532;54.322;10.116;2022-10-17T05:23:24;18.80;72.30
18809;DHT22;9532;54.322;10.116;2022-10-17T05:25:54;18.70;72.30
18809;DHT22;9532;54.322;10.116;2022-10-17T05:28:21;18.70;72.30
18809;DHT22;9532;54.322;10.116;2022-10-17T05:30:49;18.80;72.40
18809;DHT22;9532;54.322;10.116;2022-10-17T05:33:16;18.80;72.30
18809;DHT22;9532;54.322;10.116;2022-10-17T05:35:43;18.80;72.30
18809;DHT22;9532;54.322;10.116;2022-10-17T05:38:11;18.70;72.30
18809;DHT22;9532;54.322;10.116;2022-10-17T05:40:38;18.70;72.30
18809;DHT22;9532;54.322;10.116;2022-10-17T05:43:06;18.80;72.30
18809;DHT22;9532;54.322;10.116;2022-10-17T05:45:32;18.80;72.30
18809;DHT22;9532;54.322;10.116;2022-10-17T05:47:59;18.80;72.30
18809;DHT22;9532;54.322;10.116;2022-10-17T05:50:26;18.80;72.30
18809;DHT22;9532;54.322;10.116;2022-10-17T05:52:54;18.70;72.20
18809;DHT22;9532;54.322;10.116;2022-10-17T05:55:23;18.70;72.30
18809;DHT22;9532;54.322;10.116;2022-10-17T05:57:50;18.70;72.20
18809;DHT22;9532;54.322;10.116;2022-10-17T06:00:18;18.70;72.30
18809;DHT22;9532;54.322;10.116;2022-10-17T06:02:46;18.70;72.30
18809;DHT22;9532;54.322;10.116;2022-10-17T06:05:13;18.70;72.30
18809;DHT22;9532;54.322;10.116;2022-10-17T06:07:41;18.70;72.30
18809;DHT22;9532;54.322;10.116;2022-10-17T06:10:09;18.70;72.20
18809;DHT22;9532;54.322;10.116;2022-10-17T06:12:39;18.80;72.30
18809;DHT22;9532;54.322;10.116;2022-10-17T06:15:07;18.70;72.30
18809;DHT22;9532;54.322;10.116;2022-10-17T06:17:34;18.80;72.40
18809;DHT22;9532;54.322;10.116;2022-10-17T06:20:01;18.80;73.10
18809;DHT22;9532;54.322;10.116;2022-10-17T06:22:28;18.70;72.30
18809;DHT22;9532;54.322;10.116;2022-10-17T06:24:55;18.80;72.30
18809;DHT22;9532;54.322;10.116;2022-10-17T06:27:22;18.70;72.30
18809;DHT22;9532;54.322;10.116;2022-10-17T06:29:51;18.80;72.30
18809;DHT22;9532;54.322;10.116;2022-10-17T06:32:18;18.70;72.30
18809;DHT22;9532;54.322;10.116;2022-10-17T06:34:45;18.70;72.30
18809;DHT22;9532;54.322;10.116;2022-10-17T06:37:12;18.70;72.20
18809;DHT22;9532;54.322;10.116;2022-10-17T06:39:39;18.70;72.30
18809;DHT22;9532;54.322;10.116;2022-10-17T06:42:06;18.70;72.30
18809;DHT22;9532;54.322;10.116;2022-10-17T06:44:33;18.70;72.30
18809;DHT22;9532;54.322;10.116;2022-10-17T06:47:02;18.70;72.30
18809;DHT22;9532;54.322;10.116;2022-10-17T06:49:29;18.70;72.30
18809;DHT22;9532;54.322;10.116;2022-10-17T06:51:58;18.70;72.30
18809;DHT22;9532;54.322;10.116;2022-10-17T06:54:25;18.70;72.30
18809;DHT22;9532;54.322;10.116;2022-10-17T06:56:52;18.80;72.30
18809;DHT22;9532;54.322;10.116;2022-10-17T06:59:20;18.70;72.30
18809;DHT22;9532;54.322;10.116;2022-10-17T07:01:47;18.80;72.30
18809;DHT22;9532;54.322;10.116;2022-10-17T07:04:16;18.70;72.30
18809;DHT22;9532;54.322;10.116;2022-10-17T07:06:42;18.70;72.30
18809;DHT22;9532;54.322;10.116;2022-10-17T07:09:09;18.70;72.30
18809;DHT22;9532;54.322;10.116;2022-10-17T07:11:37;18.80;72.30
18809;DHT22;9532;54.322;10.116;2022-10-17T07:14:04;18.70;72.30
18809;DHT22;9532;54.322;10.116;2022-10-17T07:16:32;18.80;72.30
18809;DHT22;9532;54.322;10.116;2022-10-17T07:19:00;18.80;72.30
18809;DHT22;9532;54.322;10.116;2022-10-17T07:21:29;18.80;72.30
18809;DHT22;9532;54.322;10.116;2022-10-17T07:23:56;18.70;72.20
18809;DHT22;9532;54.322;10.116;2022-10-17T07:26:23;18.80;72.30
18809;DHT22;9532;54.322;10.116;2022-10-17T07:28:52;18.70;72.30
18809;DHT22;9532;54.322;10.116;2022-10-17T07:31:21;18.80;72.30
18809;DHT22;9532;54.322;10.116;2022-10-17T07:33:49;18.80;72.30
18809;DHT22;9532;54.322;10.116;2022-10-17T07:36:16;18.80;72.30
18809;DHT22;9532;54.322;10.116;2022-10-17T07:38:45;18.80;72.10
18809;DHT22;9532;54.322;10.116;2022-10-17T07:41:12;18.80;72.20
18809;DHT22;9532;54.322;10.116;2022-10-17T07:43:39;18.80;72.20
18809;DHT22;9532;54.322;10.116;2022-10-17T07:46:07;18.80;72.20
18809;DHT22;9532;54.322;10.116;2022-10-17T07:48:36;18.80;72.10
18809;DHT22;9532;54.322;10.116;2022-10-17T07:51:04;18.80;72.10
18809;DHT22;9532;54.322;10.116;2022-10-17T07:53:34;18.80;72.10
18809;DHT22;9532;54.322;10.116;2022-10-17T07:56:04;18.90;72.10
18809;DHT22;9532;54.322;10.116;2022-10-17T07:58:33;18.90;72.10
18809;DHT22;9532;54.322;10.116;2022-10-17T08:01:00;18.90;72.10
18809;DHT22;9532;54.322;10.116;2022-10-17T08:03:27;18.90;72.10
18809;DHT22;9532;54.322;10.116;2022-10-17T08:05:58;18.90;72.10
18809;DHT22;9532;54.322;10.116;2022-10-17T08:08:26;18.90;71.80
18809;DHT22;9532;54.322;10.116;2022-10-17T08:10:54;18.90;71.90
18809;DHT22;9532;54.322;10.116;2022-10-17T08:13:23;18.90;71.90
18809;DHT22;9532;54.322;10.116;2022-10-17T08:15:49;18.90;71.90
18809;DHT22;9532;54.322;10.116;2022-10-17T08:18:17;18.90;71.90
18809;DHT22;9532;54.322;10.116;2022-10-17T08:20:44;18.90;72.70
18809;DHT22;9532;54.322;10.116;2022-10-17T08:23:11;18.90;71.80
18809;DHT22;9532;54.322;10.116;2022-10-17T08:25:38;18.90;71.80
18809;DHT22;9532;54.322;10.116;2022-10-17T08:28:05;18.90;71.80
18809;DHT22;9532;54.322;10.116;2022-10-17T08:30:34;18.90;71.80
18809;DHT22;9532;54.322;10.116;2022-10-17T08:33:01;18.90;71.90
18809;DHT22;9532;54.322;10.116;2022-10-17T08:35:28;18.90;71.80
18809;DHT22;9532;54.322;10.116;2022-10-17T08:37:57;18.90;71.90
18809;DHT22;9532;54.322;10.116;2022-10-17T08:40:27;18.90;71.80
18809;DHT22;9532;54.322;10.116;2022-10-17T08:43:11;18.90;71.90
18809;DHT22;9532;54.322;10.116;2022-10-17T08:45:46;18.90;72.60
18809;DHT22;9532;54.322;10.116;2022-10-17T08:48:17;18.90;71.80
18809;DHT22;9532;54.322;10.116;2022-10-17T08:50:48;18.90;72.50
18809;DHT22;9532;54.322;10.116;2022-10-17T08:53:19;18.90;71.60
18809;DHT22;9532;54.322;10.116;2022-10-17T08:55:49;18.90;71.60
18809;DHT22;9532;54.322;10.116;2022-10-17T08:58:19;18.90;71.70
18809;DHT22;9532;54.322;10.116;2022-10-17T09:00:55;18.90;71.80
18809;DHT22;9532;54.322;10.116;2022-10-17T09:03:44;18.90;71.70
18809;DHT22;9532;54.322;10.116;2022-10-17T09:06:20;18.90;71.80
18809;DHT22;9532;54.322;10.116;2022-10-17T09:09:01;18.90;71.80
18809;DHT22;9532;54.322;10.116;2022-10-17T09:11:42;18.90;71.80
18809;DHT22;9532;54.322;10.116;2022-10-17T09:14:26;18.90;71.80
18809;DHT22;9532;54.322;10.116;2022-10-17T09:17:07;18.90;71.90
18809;DHT22;9532;54.322;10.116;2022-10-17T09:19:42;18.90;71.90
18809;DHT22;9532;54.322;10.116;2022-10-17T09:22:14;18.90;71.90
18809;DHT22;9532;54.322;10.116;2022-10-17T09:24:45;18.90;71.90
18809;DHT22;9532;54.322;10.116;2022-10-17T09:27:21;18.90;71.90
18809;DHT22;9532;54.322;10.116;2022-10-17T09:29:51;18.90;71.90
18809;DHT22;9532;54.322;10.116;2022-10-17T09:32:23;18.90;71.90
18809;DHT22;9532;54.322;10.116;2022-10-17T09:34:51;18.90;71.90
18809;DHT22;9532;54.322;10.116;2022-10-17T09:37:23;18.90;71.90
18809;DHT22;9532;54.322;10.116;2022-10-17T09:39:55;18.90;71.90
18809;DHT22;9532;54.322;10.116;2022-10-17T09:42:25;18.90;71.90
18809;DHT22;9532;54.322;10.116;2022-10-17T09:45:01;18.90;71.90
18809;DHT22;9532;54.322;10.116;2022-10-17T09:47:35;18.90;71.90
18809;DHT22;9532;54.322;10.116;2022-10-17T09:50:09;18.90;71.80
18809;DHT22;9532;54.322;10.116;2022-10-17T09:52:42;18.90;71.80
18809;DHT22;9532;54.322;10.116;2022-10-17T09:55:17;18.90;71.80
18809;DHT22;9532;54.322;10.116;2022-10-17T09:57:54;18.90;71.80
18809;DHT22;9532;54.322;10.116;2022-10-17T10:00:23;18.90;71.80
18809;DHT22;9532;54.322;10.116;2022-10-17T10:03:12;18.90;71.80
18809;DHT22;9532;54.322;10.116;2022-10-17T10:05:41;18.90;71.80
18809;DHT22;9532;54.322;10.116;2022-10-17T10:08:14;18.90;71.90
18809;DHT22;9532;54.322;10.116;2022-10-17T10:10:42;18.90;71.80
18809;DHT22;9532;54.322;10.116;2022-10-17T10:13:17;18.90;71.80
18809;DHT22;9532;54.322;10.116;2022-10-17T10:15:47;18.90;71.80
18809;DHT22;9532;54.322;10.116;2022-10-17T10:18:31;18.90;71.80
18809;DHT22;9532;54.322;10.116;2022-10-17T10:21:12;18.90;71.80
18809;DHT22;9532;54.322;10.116;2022-10-17T10:23:41;18.90;71.80
18809;DHT22;9532;54.322;10.116;2022-10-17T10:26:19;18.90;71.80
18809;DHT22;9532;54.322;10.116;2022-10-17T10:28:58;18.90;71.80
18809;DHT22;9532;54.322;10.116;2022-10-17T10:31:32;18.90;71.80
18809;DHT22;9532;54.322;10.116;2022-10-17T10:34:11;18.90;71.80
18809;DHT22;9532;54.322;10.116;2022-10-17T10:36:46;18.90;71.80
18809;DHT22;9532;54.322;10.116;2022-10-17T10:39:44;18.90;71.80
18809;DHT22;9532;54.322;10.116;2022-10-17T10:42:20;18.90;71.80
18809;DHT22;9532;54.322;10.116;2022-10-17T10:44:48;18.90;71.90
18809;DHT22;9532;54.322;10.116;2022-10-17T10:47:20;18.90;71.80
18809;DHT22;9532;54.322;10.116;2022-10-17T10:49:50;19.00;71.90
18809;DHT22;9532;54.322;10.116;2022-10-17T10:52:30;18.90;71.80
18809;DHT22;9532;54.322;10.116;2022-10-17T10:55:09;19.00;71.90
18809;DHT22;9532;54.322;10.116;2022-10-17T10:57:41;18.90;71.90
18809;DHT22;9532;54.322;10.116;2022-10-17T11:00:14;18.90;71.90
18809;DHT22;9532;54.322;10.116;2022-10-17T11:02:48;18.90;71.90
18809;DHT22;9532;54.322;10.116;2022-10-17T11:05:25;19.00;72.00
18809;DHT22;9532;54.322;10.116;2022-10-17T11:08:03;18.90;71.80
18809;DHT22;9532;54.322;10.116;2022-10-17T11:10:36;18.90;71.90
18809;DHT22;9532;54.322;10.116;2022-10-17T11:13:10;18.90;71.90
18809;DHT22;9532;54.322;10.116;2022-10-17T11:15:44;19.00;72.00
18809;DHT22;9532;54.322;10.116;2022-10-17T11:18:20;19.00;71.90
18809;DHT22;9532;54.322;10.116;2022-10-17T11:20:53;19.00;72.00
18809;DHT22;9532;54.322;10.116;2022-10-17T11:23:25;19.00;71.90
18809;DHT22;9532;54.322;10.116;2022-10-17T11:25:56;19.00;72.00
18809;DHT22;9532;54.322;10.116;2022-10-17T11:28:25;18.90;71.90
18809;DHT22;9532;54.322;10.116;2022-10-17T11:30:56;18.90;72.00
18809;DHT22;9532;54.322;10.116;2022-10-17T11:33:27;19.00;72.00
18809;DHT22;9532;54.322;10.116;2022-10-17T11:36:00;19.00;72.00
18809;DHT22;9532;54.322;10.116;2022-10-17T11:38:40;19.00;72.10
18809;DHT22;9532;54.322;10.116;2022-10-17T11:41:13;19.00;72.10
18809;DHT22;9532;54.322;10.116;2022-10-17T11:43:47;19.00;72.10
18809;DHT22;9532;54.322;10.116;2022-10-17T11:46:20;19.00;72.10
18809;DHT22;9532;54.322;10.116;2022-10-17T11:48:59;19.00;72.10
18809;DHT22;9532;54.322;10.116;2022-10-17T11:51:36;18.90;72.00
18809;DHT22;9532;54.322;10.116;2022-10-17T11:54:09;19.00;72.10
18809;DHT22;9532;54.322;10.116;2022-10-17T11:56:43;19.00;72.10
18809;DHT22;9532;54.322;10.116;2022-10-17T12:02:34;19.00;72.10
18809;DHT22;9532;54.322;10.116;2022-10-17T12:05:11;19.00;72.10
18809;DHT22;9532;54.322;10.116;2022-10-17T12:07:47;18.90;72.10
18809;DHT22;9532;54.322;10.116;2022-10-17T12:10:26;19.00;72.10
18809;DHT22;9532;54.322;10.116;2022-10-17T12:12:54;19.00;72.10
18809;DHT22;9532;54.322;10.116;2022-10-17T12:15:29;19.00;72.10
18809;DHT22;9532;54.322;10.116;2022-10-17T12:17:57;19.00;72.10
18809;DHT22;9532;54.322;10.116;2022-10-17T12:20:34;19.00;72.10
18809;DHT22;9532;54.322;10.116;2022-10-17T12:23:25;19.00;72.10
18809;DHT22;9532;54.322;10.116;2022-10-17T12:25:54;19.00;72.10
18809;DHT22;9532;54.322;10.116;2022-10-17T12:28:26;19.00;72.10
18809;DHT22;9532;54.322;10.116;2022-10-17T12:30:57;19.00;72.10
18809;DHT22;9532;54.322;10.116;2022-10-17T12:33:30;19.00;72.10
18809;DHT22;9532;54.322;10.116;2022-10-17T12:39:49;19.00;72.10
18809;DHT22;9532;54.322;10.116;2022-10-17T12:42:32;19.00;72.10
18809;DHT22;9532;54.322;10.116;2022-10-17T12:44:59;19.00;72.10
18809;DHT22;9532;54.322;10.116;2022-10-17T12:47:36;19.00;72.10
18809;DHT22;9532;54.322;10.116;2022-10-17T12:53:13;19.00;72.10
18809;DHT22;9532;54.322;10.116;2022-10-17T12:55:44;19.00;72.20
18809;DHT22;9532;54.322;10.116;2022-10-17T12:58:13;19.00;72.10
18809;DHT22;9532;54.322;10.116;2022-10-17T13:00:44;19.00;72.20
18809;DHT22;9532;54.322;10.116;2022-10-17T13:03:15;19.00;72.20
18809;DHT22;9532;54.322;10.116;2022-10-17T13:05:45;19.00;72.20
18809;DHT22;9532;54.322;10.116;2022-10-17T13:08:18;19.00;72.20
18809;DHT22;9532;54.322;10.116;2022-10-17T13:10:49;19.00;72.30
18809;DHT22;9532;54.322;10.116;2022-10-17T13:13:20;19.00;72.30
18809;DHT22;9532;54.322;10.116;2022-10-17T13:15:49;19.00;72.30
18809;DHT22;9532;54.322;10.116;2022-10-17T13:18:19;19.00;72.30
18809;DHT22;9532;54.322;10.116;2022-10-17T13:20:58;19.00;72.30
18809;DHT22;9532;54.322;10.116;2022-10-17T13:23:29;19.00;72.30
18809;DHT22;9532;54.322;10.116;2022-10-17T13:26:13;19.00;72.30
18809;DHT22;9532;54.322;10.116;2022-10-17T13:28:42;19.00;72.40
18809;DHT22;9532;54.322;10.116;2022-10-17T13:31:28;19.00;72.40
18809;DHT22;9532;54.322;10.116;2022-10-17T13:33:57;19.00;72.50
18809;DHT22;9532;54.322;10.116;2022-10-17T13:36:26;19.00;72.50
18809;DHT22;9532;54.322;10.116;2022-10-17T13:38:54;19.00;72.50
18809;DHT22;9532;54.322;10.116;2022-10-17T13:41:25;19.00;72.50
18809;DHT22;9532;54.322;10.116;2022-10-17T13:43:53;19.00;72.50
18809;DHT22;9532;54.322;10.116;2022-10-17T13:46:26;19.00;72.50
18809;DHT22;9532;54.322;10.116;2022-10-17T13:48:55;19.00;72.50
18809;DHT22;9532;54.322;10.116;2022-10-17T13:51:23;19.00;72.50
18809;DHT22;9532;54.322;10.116;2022-10-17T13:53:51;19.00;72.50
18809;DHT22;9532;54.322;10.116;2022-10-17T13:56:20;19.00;72.50
18809;DHT22;9532;54.322;10.116;2022-10-17T13:58:53;19.00;72.50
18809;DHT22;9532;54.322;10.116;2022-10-17T14:01:23;19.00;72.50
18809;DHT22;9532;54.322;10.116;2022-10-17T14:03:50;18.90;72.50
18809;DHT22;9532;54.322;10.116;2022-10-17T14:06:19;19.00;72.60
18809;DHT22;9532;54.322;10.116;2022-10-17T14:08:50;19.00;72.60
18809;DHT22;9532;54.322;10.116;2022-10-17T14:11:25;19.00;72.60
18809;DHT22;9532;54.322;10.116;2022-10-17T14:13:55;19.00;72.60
18809;DHT22;9532;54.322;10.116;2022-10-17T14:16:24;19.00;72.60
18809;DHT22;9532;54.322;10.116;2022-10-17T14:18:52;19.00;72.60
18809;DHT22;9532;54.322;10.116;2022-10-17T14:21:23;19.00;72.60
18809;DHT22;9532;54.322;10.116;2022-10-17T14:23:52;19.00;72.60
18809;DHT22;9532;54.322;10.116;2022-10-17T14:26:46;18.90;72.60
18809;DHT22;9532;54.322;10.116;2022-10-17T14:29:21;19.00;72.70
18809;DHT22;9532;54.322;10.116;2022-10-17T14:31:49;19.00;72.60
18809;DHT22;9532;54.322;10.116;2022-10-17T14:34:23;19.00;72.60
18809;DHT22;9532;54.322;10.116;2022-10-17T14:36:52;19.00;72.60
18809;DHT22;9532;54.322;10.116;2022-10-17T14:39:22;19.00;72.60
18809;DHT22;9532;54.322;10.116;2022-10-17T14:41:50;19.00;72.60
18809;DHT22;9532;54.322;10.116;2022-10-17T14:44:23;19.00;72.60
18809;DHT22;9532;54.322;10.116;2022-10-17T14:46:55;19.00;72.70
18809;DHT22;9532;54.322;10.116;2022-10-17T14:49:30;19.00;72.60
18809;DHT22;9532;54.322;10.116;2022-10-17T14:52:24;19.00;72.70
18809;DHT22;9532;54.322;10.116;2022-10-17T14:54:52;19.00;72.80
18809;DHT22;9532;54.322;10.116;2022-10-17T14:57:23;19.00;72.80
18809;DHT22;9532;54.322;10.116;2022-10-17T14:59:52;19.00;72.80
18809;DHT22;9532;54.322;10.116;2022-10-17T15:02:20;19.00;72.80
18809;DHT22;9532;54.322;10.116;2022-10-17T15:04:48;19.00;72.80
18809;DHT22;9532;54.322;10.116;2022-10-17T15:07:16;18.90;72.70
18809;DHT22;9532;54.322;10.116;2022-10-17T15:09:47;19.00;72.80
18809;DHT22;9532;54.322;10.116;2022-10-17T15:12:16;18.90;72.70
18809;DHT22;9532;54.322;10.116;2022-10-17T15:14:44;19.00;72.80
18809;DHT22;9532;54.322;10.116;2022-10-17T15:17:16;19.00;72.80
18809;DHT22;9532;54.322;10.116;2022-10-17T15:19:45;19.00;72.80
18809;DHT22;9532;54.322;10.116;2022-10-17T15:22:12;19.00;72.80
18809;DHT22;9532;54.322;10.116;2022-10-17T15:24:40;19.00;72.80
18809;DHT22;9532;54.322;10.116;2022-10-17T15:27:13;19.00;72.80
18809;DHT22;9532;54.322;10.116;2022-10-17T15:29:41;19.00;72.80
18809;DHT22;9532;54.322;10.116;2022-10-17T15:32:08;19.00;72.80
18809;DHT22;9532;54.322;10.116;2022-10-17T15:34:37;19.00;72.80
18809;DHT22;9532;54.322;10.116;2022-10-17T15:37:05;18.90;72.80
18809;DHT22;9532;54.322;10.116;2022-10-17T15:39:33;19.00;72.80
18809;DHT22;9532;54.322;10.116;2022-10-17T15:42:00;18.90;72.70
18809;DHT22;9532;54.322;10.116;2022-10-17T15:44:27;19.00;72.80
18809;DHT22;9532;54.322;10.116;2022-10-17T15:46:54;19.00;72.80
18809;DHT22;9532;54.322;10.116;2022-10-17T15:49:22;19.00;72.80
18809;DHT22;9532;54.322;10.116;2022-10-17T15:51:50;19.00;72.80
18809;DHT22;9532;54.322;10.116;2022-10-17T15:54:18;19.00;72.80
18809;DHT22;9532;54.322;10.116;2022-10-17T15:56:50;19.00;72.80
18809;DHT22;9532;54.322;10.116;2022-10-17T15:59:21;19.00;72.80
18809;DHT22;9532;54.322;10.116;2022-10-17T16:01:49;19.00;72.80
18809;DHT22;9532;54.322;10.116;2022-10-17T16:04:16;19.00;72.80
18809;DHT22;9532;54.322;10.116;2022-10-17T16:06:43;19.00;72.80
18809;DHT22;9532;54.322;10.116;2022-10-17T16:09:11;19.00;72.80